Time;durP1;ratioP1;P1;durP2;ratioP2;P2;SDS_P1;SDS_P2;PMS_P1;PMS_P2;Temp;Humidity;BMP_temperature;BMP_pressure;BME280_temperature;BME280_humidity;BME280_pressure;Samples;Min_cycle;Max_cycle;Signal;HPM_P1;HPM_P2
2022/01/28 09:43:32;;;;;;;1.10;1.00;;;;;;;4.04;93.16;100422.03;5170576;27;20574;-87
2022/01/28 09:46:00;;;;;;;2.37;1.77;;;;;;;4.57;92.54;100431.88;5168995;27;38758;-86
2022/01/28 09:48:32;;;;;;;2.43;1.13;;;;;;;5.10;88.62;100440.75;5155816;27;40982;-86
2022/01/28 09:51:02;;;;;;;1.60;0.93;;;;;;;5.62;86.74;100439.91;5148437;27;41974;-87
2022/01/28 09:53:30;;;;;;;2.57;0.80;;;;;;;6.07;83.25;100446.13;5135145;27;41428;-90
2022/01/28 09:55:58;;;;;;;1.37;1.00;;;;;;;6.37;80.48;100453.44;5134789;27;39174;-86
2022/01/28 09:58:26;;;;;;;1.60;1.50;;;;;;;6.75;80.21;100457.94;5134282;27;41954;-87
2022/01/28 10:00:55;;;;;;;1.53;0.80;;;;;;;7.17;76.25;100442.91;5135213;27;42030;-85
2022/01/28 10:03:29;;;;;;;3.90;1.23;;;;;;;7.42;74.43;100444.97;5134931;27;41410;-85
2022/01/28 10:05:58;;;;;;;4.93;1.30;;;;;;;7.99;72.86;100465.50;5135262;27;38970;-86
2022/01/28 10:08:28;;;;;;;1.37;1.10;;;;;;;8.62;69.96;100481.41;5133466;27;40981;-86
2022/01/28 10:11:07;;;;;;;1.33;1.23;;;;;;;9.20;67.50;100485.81;5134078;27;42041;-86
2022/01/28 10:14:03;;;;;;;1.00;0.90;;;;;;;9.36;68.13;100451.81;5116690;27;41325;-88
2022/01/28 10:16:32;;;;;;;2.47;0.73;;;;;;;10.12;64.30;100504.84;5116943;27;39408;-87
2022/01/28 10:19:01;;;;;;;1.17;0.80;;;;;;;10.34;61.79;100492.63;5134772;27;41898;-85
2022/01/28 10:21:49;;;;;;;6.33;1.20;;;;;;;10.13;61.76;100480.09;5139050;27;41378;-86
2022/01/28 10:24:22;;;;;;;3.03;1.23;;;;;;;9.94;63.30;100455.19;5152999;27;42452;-85
2022/01/28 10:29:41;;;;;;;6.83;1.70;;;;;;;12.30;58.91;100473.34;5155959;27;42468;-90
2022/01/28 10:32:12;;;;;;;1.67;1.20;;;;;;;14.45;53.11;100543.84;5094329;27;41968;-88
2022/01/28 10:34:42;;;;;;;6.17;1.10;;;;;;;15.79;51.18;100536.53;5092819;27;41034;-86
2022/01/28 10:37:16;;;;;;;2.83;1.17;;;;;;;17.96;42.69;100586.50;5093667;27;39353;-87
2022/01/28 10:39:49;;;;;;;1.63;1.00;;;;;;;18.17;41.51;100560.97;5092933;27;41707;-87
2022/01/28 10:42:19;;;;;;;5.03;0.80;;;;;;;17.86;42.50;100521.91;5093399;27;41957;-87
2022/01/28 10:44:59;;;;;;;3.60;1.10;;;;;;;17.84;42.08;100590.84;5088373;28;42902;-88
2022/01/28 10:47:44;;;;;;;4.17;1.00;;;;;;;16.58;43.56;100571.94;5073391;28;40048;-88
2022/01/28 10:50:26;;;;;;;2.13;0.93;;;;;;;15.22;44.97;100512.09;5089697;27;41501;-88
2022/01/28 10:53:27;;;;;;;1.20;0.80;;;;;;;15.44;45.63;100558.03;5091002;27;41908;-89
2022/01/28 10:55:57;;;;;;;1.73;0.80;;;;;;;17.33;40.96;100589.63;5062534;28;41285;-85
2022/01/28 10:58:37;;;;;;;1.33;0.80;;;;;;;20.05;36.85;100615.75;5079102;27;38838;-85
2022/01/28 11:01:14;;;;;;;0.87;0.87;;;;;;;22.12;33.53;100610.34;5079182;28;41553;-86
2022/01/28 11:03:43;;;;;;;1.37;1.27;;;;;;;23.83;31.65;100627.06;5061837;27;43044;-86
2022/01/28 11:06:11;;;;;;;1.97;1.07;;;;;;;25.25;28.91;100655.41;5079199;28;42080;-86
2022/01/28 11:08:40;;;;;;;1.53;1.33;;;;;;;26.30;27.70;100655.19;5079306;27;38553;-90
2022/01/28 11:11:07;;;;;;;2.87;1.27;;;;;;;27.22;26.97;100636.66;5062418;28;42542;-86
2022/01/28 11:13:36;;;;;;;1.63;1.00;;;;;;;28.16;25.77;100658.44;5078164;27;41865;-86
2022/01/28 11:16:44;;;;;;;1.83;0.90;;;;;;;28.15;25.00;100624.91;5061887;28;41976;-86
2022/01/28 11:29:31;;;;;;;1.00;0.90;;;;;;;22.24;29.37;100595.84;5128435;27;43028;-83
2022/01/28 11:32:17;;;;;;;1.87;1.10;;;;;;;21.16;31.18;100599.19;5099159;27;41213;-84
2022/01/28 11:35:02;;;;;;;1.87;1.13;;;;;;;20.29;32.16;100578.97;5098690;27;41879;-84
2022/01/28 11:37:45;;;;;;;1.07;0.70;;;;;;;18.75;32.83;100586.56;5099020;27;42953;-84
2022/01/28 11:43:22;;;;;;;1.57;1.00;;;;;;;16.75;36.28;100561.13;5131735;27;41464;-85
2022/01/28 11:49:28;;;;;;;2.40;0.83;;;;;;;15.38;36.65;100530.81;5082999;27;43402;-85
2022/01/28 11:51:55;;;;;;;1.53;0.70;;;;;;;14.78;38.64;100556.34;5099302;27;41601;-82
2022/01/28 11:55:03;;;;;;;1.87;0.90;;;;;;;13.97;40.06;100508.00;5094931;28;38851;-84
2022/01/28 11:58:12;;;;;;;2.07;0.93;;;;;;;13.77;40.27;100548.09;5094811;28;42062;-83
2022/01/28 12:03:22;;;;;;;5.13;1.07;;;;;;;12.73;42.01;100527.28;5127972;27;43300;-87
2022/01/28 12:06:30;;;;;;;0.80;0.80;;;;;;;12.42;41.60;100530.41;5077637;28;39811;-83
2022/01/28 12:08:58;;;;;;;8.37;1.30;;;;;;;11.97;42.13;100552.69;5094490;28;42370;-85
2022/01/28 12:15:19;;;;;;;1.57;1.17;;;;;;;11.18;43.71;100504.53;5088576;28;41651;-84
2022/01/28 12:18:31;;;;;;;1.77;0.83;;;;;;;11.55;44.18;100526.03;5078108;28;39210;-85
2022/01/28 12:21:28;;;;;;;3.93;0.97;;;;;;;11.45;44.99;100469.84;5058008;28;40743;-84
2022/01/28 12:27:14;;;;;;;1.47;1.37;;;;;;;11.86;43.95;100521.25;5057379;28;41473;-83
2022/01/28 12:29:45;;;;;;;2.80;1.33;;;;;;;11.85;44.90;100508.91;5068839;28;40539;-82
2022/01/28 12:32:13;;;;;;;1.63;0.90;;;;;;;11.58;44.56;100478.16;5078242;28;40925;-82
2022/01/28 12:34:51;;;;;;;1.77;1.13;;;;;;;12.07;45.03;100515.97;5077532;27;41311;-84
2022/01/28 12:37:24;;;;;;;5.10;0.90;;;;;;;11.92;44.13;100479.44;5091636;28;41307;-84
2022/01/28 12:39:59;;;;;;;2.20;0.97;;;;;;;12.10;43.53;100497.25;5060751;28;38933;-82
2022/01/28 12:42:28;;;;;;;2.10;0.93;;;;;;;12.06;44.61;100508.94;5078009;28;40990;-82
2022/01/28 12:45:12;;;;;;;3.27;1.33;;;;;;;12.00;44.27;100511.81;5059413;28;43128;-86
2022/01/28 12:47:40;;;;;;;4.97;1.13;;;;;;;14.45;41.75;100533.16;5057466;28;42129;-86
2022/01/28 12:53:18;;;;;;;2.57;0.97;;;;;;;15.70;37.00;100553.09;5070597;28;39456;-85
2022/01/28 12:58:51;;;;;;;0.93;0.80;;;;;;;14.86;38.04;100557.66;5085191;28;41194;-84
2022/01/28 13:10:50;;;;;;;1.77;1.07;;;;;;;14.12;41.61;100553.47;5091511;28;41170;-83
2022/01/28 13:13:55;;;;;;;2.07;1.17;;;;;;;13.33;41.36;100538.72;5076754;28;39386;-85
2022/01/28 13:16:31;;;;;;;2.37;0.90;;;;;;;12.98;42.84;100513.72;5061411;28;40968;-86
2022/01/28 13:19:00;;;;;;;2.70;1.10;;;;;;;12.97;42.76;100498.72;5072801;28;43202;-84
2022/01/28 13:21:48;;;;;;;3.57;1.10;;;;;;;13.11;42.39;100507.75;5073378;28;41087;-86
2022/01/28 13:24:21;;;;;;;2.97;0.90;;;;;;;13.08;41.90;100521.22;5072946;28;40182;-86
2022/01/28 13:27:24;;;;;;;7.27;1.20;;;;;;;13.02;42.17;100548.06;5073268;28;42032;-84
2022/01/28 13:30:33;;;;;;;1.80;0.90;;;;;;;12.53;43.06;100505.09;5084724;28;42603;-83
2022/01/28 13:33:38;;;;;;;3.80;0.90;;;;;;;12.25;43.82;100504.56;5069224;28;41098;-83
2022/01/28 13:36:29;;;;;;;1.60;0.80;;;;;;;12.00;43.76;100535.72;5037367;28;38840;-86
2022/01/28 13:38:58;;;;;;;1.00;0.70;;;;;;;11.59;43.84;100514.38;5042347;28;41867;-86
2022/01/28 13:41:36;;;;;;;1.10;1.00;;;;;;;11.32;44.59;100489.81;5072886;28;41865;-86
2022/01/28 13:44:24;;;;;;;4.23;1.37;;;;;;;11.31;46.31;100508.44;5064022;28;41286;-84
2022/01/28 13:47:02;;;;;;;6.53;1.43;;;;;;;10.94;45.57;100495.72;5058530;28;40196;-88
2022/01/28 13:49:43;;;;;;;3.93;0.93;;;;;;;10.60;46.03;100461.69;5056267;28;40879;-85
2022/01/28 13:56:14;;;;;;;1.37;0.83;;;;;;;10.82;48.31;100505.00;5068010;28;41255;-87
2022/01/28 13:59:10;;;;;;;3.40;1.23;;;;;;;10.60;49.70;100469.63;5075025;28;38582;-86
2022/01/28 14:01:45;;;;;;;2.17;1.40;;;;;;;10.41;49.92;100464.97;5091711;28;40788;-84
2022/01/28 14:04:27;;;;;;;5.00;1.57;;;;;;;10.27;50.67;100469.91;5079270;28;41737;-85
2022/01/28 14:07:13;;;;;;;0.90;0.90;;;;;;;10.28;50.80;100502.56;5068825;28;41368;-83
2022/01/28 14:09:46;;;;;;;2.60;1.20;;;;;;;10.24;50.80;100491.22;5059380;28;38890;-83
2022/01/28 14:12:41;;;;;;;1.90;1.43;;;;;;;10.31;51.41;100476.84;5070183;28;42625;-83
2022/01/28 14:15:14;;;;;;;2.10;1.70;;;;;;;10.46;51.30;100469.25;5035495;28;41680;-84
2022/01/28 14:17:44;;;;;;;3.30;1.23;;;;;;;10.80;51.05;100459.13;5036115;28;41016;-84
2022/01/28 14:20:13;;;;;;;3.57;1.17;;;;;;;11.19;50.28;100498.31;5050848;28;38947;-84
2022/01/28 14:22:41;;;;;;;2.10;1.30;;;;;;;10.88;49.08;100503.94;5056062;28;41197;-83
2022/01/28 14:25:09;;;;;;;5.03;0.93;;;;;;;10.61;49.13;100503.16;5051011;28;42778;-83
2022/01/28 14:27:59;;;;;;;2.43;1.13;;;;;;;10.27;48.59;100484.94;5036109;28;41125;-83
2022/01/28 14:30:36;;;;;;;3.10;1.00;;;;;;;10.05;48.86;100450.38;5056328;28;39980;-84
2022/01/28 14:33:06;;;;;;;2.80;1.07;;;;;;;10.28;47.88;100486.66;5055487;28;41561;-83
2022/01/28 14:35:36;;;;;;;3.20;1.00;;;;;;;11.05;47.11;100490.88;5038946;28;41446;-83
2022/01/28 14:38:04;;;;;;;2.17;1.10;;;;;;;11.21;46.00;100501.75;5040128;28;41024;-83
2022/01/28 14:40:32;;;;;;;2.87;1.77;;;;;;;11.27;46.32;100520.06;5057247;28;39156;-83
2022/01/28 14:42:59;;;;;;;2.23;1.73;;;;;;;11.00;46.15;100506.94;5075736;28;42183;-83
2022/01/28 14:45:27;;;;;;;3.23;1.60;;;;;;;10.71;46.04;100492.16;5076144;28;41975;-83
2022/01/28 14:47:54;;;;;;;4.63;1.20;;;;;;;10.55;46.63;100492.75;5059792;28;41466;-83
2022/01/28 14:50:22;;;;;;;1.43;0.90;;;;;;;10.55;46.42;100532.50;5058802;28;39610;-83
2022/01/28 14:52:51;;;;;;;3.23;0.70;;;;;;;10.12;47.22;100483.69;5059467;28;41550;-82
2022/01/28 14:55:19;;;;;;;1.77;1.03;;;;;;;10.23;47.66;100520.41;5059278;28;41917;-83
2022/01/28 14:57:47;;;;;;;0.97;0.97;;;;;;;10.07;47.26;100515.59;5071302;28;43309;-90
2022/01/28 15:00:17;;;;;;;2.10;0.90;;;;;;;9.85;47.14;100525.16;5066916;28;38911;-87
2022/01/28 15:02:44;;;;;;;1.10;0.60;;;;;;;9.52;47.68;100511.22;5078153;28;41966;-85
2022/01/28 15:05:13;;;;;;;1.37;1.10;;;;;;;9.45;48.46;100530.88;5094421;28;41686;-85
2022/01/28 15:07:40;;;;;;;1.67;0.80;;;;;;;9.27;48.65;100520.88;5078798;28;41266;-84
2022/01/28 15:10:10;;;;;;;3.40;0.80;;;;;;;9.01;49.07;100503.16;5072555;28;39917;-83
2022/01/28 15:12:40;;;;;;;1.73;0.73;;;;;;;9.06;49.39;100526.78;5057712;28;43372;-86
2022/01/28 15:15:08;;;;;;;2.10;0.90;;;;;;;8.86;49.96;100507.09;5091895;28;43652;-86
2022/01/28 15:17:35;;;;;;;3.87;1.03;;;;;;;8.79;50.21;100518.75;5074654;28;41682;-83
2022/01/28 15:20:04;;;;;;;5.13;1.83;;;;;;;8.74;50.62;100520.66;5074198;28;38875;-84
2022/01/28 15:22:31;;;;;;;6.20;1.23;;;;;;;8.53;50.61;100500.16;5057963;28;40695;-85
2022/01/28 15:24:59;;;;;;;1.67;0.90;;;;;;;8.52;51.25;100514.25;5055300;28;41631;-83
2022/01/28 15:27:29;;;;;;;3.20;0.97;;;;;;;8.42;51.82;100507.47;5057803;28;42517;-82
2022/01/28 15:30:03;;;;;;;5.43;1.70;;;;;;;8.25;52.24;100506.16;5054105;28;40352;-83
2022/01/28 15:38:10;;;;;;;4.40;0.97;;;;;;;7.96;53.32;100500.75;5089795;28;42288;-83
2022/01/28 15:40:37;;;;;;;3.33;1.10;;;;;;;7.88;53.72;100505.38;5057226;28;39342;-85
2022/01/28 15:43:06;;;;;;;6.10;1.20;;;;;;;7.75;53.86;100493.38;5057767;28;40799;-86
2022/01/28 15:45:34;;;;;;;6.33;1.23;;;;;;;7.78;54.57;100511.78;5058175;28;41721;-86
2022/01/28 15:48:03;;;;;;;4.47;0.97;;;;;;;7.66;54.56;100504.16;5052997;28;41503;-83
2022/01/28 15:50:31;;;;;;;1.17;1.03;;;;;;;7.65;55.02;100507.72;5056721;28;41617;-84
2022/01/28 15:52:59;;;;;;;4.17;0.90;;;;;;;7.56;55.40;100508.78;5056483;28;40833;-85
2022/01/28 15:55:26;;;;;;;5.37;1.10;;;;;;;7.37;55.35;100503.09;5056454;28;41698;-85
2022/01/28 15:57:54;;;;;;;1.73;1.10;;;;;;;7.39;55.65;100511.81;5058736;28;41335;-84
2022/01/28 16:00:23;;;;;;;2.73;1.00;;;;;;;7.24;55.69;100508.66;5072999;28;38744;-84
2022/01/28 16:02:51;;;;;;;4.17;1.10;;;;;;;7.19;56.07;100514.03;5074703;28;40509;-86
2022/01/28 16:05:19;;;;;;;6.57;1.50;;;;;;;7.08;56.38;100505.50;5065625;28;41323;-85
2022/01/28 16:07:47;;;;;;;3.30;1.33;;;;;;;6.72;57.11;100465.00;5062383;28;41207;-88
2022/01/28 16:10:19;;;;;;;7.00;1.20;;;;;;;6.95;56.90;100509.28;5057474;28;39958;-84
2022/01/28 16:13:02;;;;;;;4.13;1.00;;;;;;;6.81;57.18;100502.53;5055525;28;41346;-85
2022/01/28 16:17:05;;;;;;;2.00;0.93;;;;;;;6.81;57.44;100510.44;5057418;28;42621;-87
2022/01/28 16:18:28;;;;;;;1.80;0.90;;;;;;;6.91;57.57;100539.25;5073011;28;41250;-84
2022/01/28 16:20:56;;;;;;;1.20;1.00;;;;;;;6.80;57.67;100528.91;5065075;28;38903;-83
2022/01/28 16:23:25;;;;;;;1.50;1.10;;;;;;;6.72;57.50;100522.94;5052982;28;40516;-85
2022/01/28 16:25:53;;;;;;;2.80;1.23;;;;;;;6.76;58.01;100543.94;5052262;28;42111;-85
2022/01/28 16:28:21;;;;;;;1.57;0.90;;;;;;;6.73;57.95;100546.59;5073008;28;41686;-83
2022/01/28 16:30:53;;;;;;;2.53;1.07;;;;;;;6.57;57.98;100529.38;5058980;28;38796;-84
2022/01/28 16:33:21;;;;;;;3.73;1.33;;;;;;;6.52;58.57;100525.09;5056690;28;40482;-84
2022/01/28 16:35:49;;;;;;;5.83;1.03;;;;;;;6.46;58.87;100523.44;5056969;28;43073;-85
2022/01/28 16:38:16;;;;;;;2.50;1.20;;;;;;;6.28;58.68;100500.13;5049883;28;41238;-88
2022/01/28 16:40:45;;;;;;;1.43;1.30;;;;;;;6.39;58.81;100529.75;5034255;28;39513;-87
2022/01/28 16:43:20;;;;;;;1.80;1.00;;;;;;;6.45;59.16;100543.63;5051783;28;41133;-84
2022/01/28 16:45:53;;;;;;;1.90;0.93;;;;;;;6.33;59.11;100537.72;5053689;28;41942;-87
2022/01/28 16:48:20;;;;;;;3.03;1.30;;;;;;;6.29;59.19;100538.69;5051354;28;42565;-90
2022/01/28 16:50:48;;;;;;;5.00;1.60;;;;;;;6.35;59.37;100557.88;5056249;28;39247;-83
2022/01/28 16:53:19;;;;;;;1.70;1.00;;;;;;;6.19;59.13;100547.63;5058708;28;40908;-83
2022/01/28 16:55:47;;;;;;;1.33;1.07;;;;;;;6.17;59.31;100549.44;5051827;28;42668;-82
2022/01/28 16:58:14;;;;;;;5.70;1.27;;;;;;;6.21;58.96;100572.16;5085066;28;41666;-85
2022/01/28 17:00:42;;;;;;;1.23;1.13;;;;;;;5.83;59.25;100507.88;5061668;28;38379;-83
2022/01/28 17:03:11;;;;;;;3.60;2.00;;;;;;;6.06;59.08;100563.63;5051256;28;41346;-84
2022/01/28 17:05:38;;;;;;;3.27;1.50;;;;;;;6.15;59.01;100577.53;5052576;28;41868;-85
2022/01/28 17:08:07;;;;;;;4.17;1.10;;;;;;;6.18;59.29;100588.88;5051924;28;41770;-83
2022/01/28 17:10:37;;;;;;;2.97;1.27;;;;;;;6.10;59.43;100581.09;5051128;28;39448;-84
2022/01/28 17:13:07;;;;;;;3.53;1.17;;;;;;;6.03;59.59;100576.84;5048545;28;40849;-83
2022/01/28 17:15:35;;;;;;;2.80;1.43;;;;;;;6.00;59.74;100579.53;5034470;28;42194;-82
2022/01/28 17:18:03;;;;;;;3.93;1.63;;;;;;;5.97;59.85;100569.03;5076591;28;42145;-88
2022/01/28 17:20:33;;;;;;;3.80;1.00;;;;;;;5.91;59.83;100563.91;5073732;28;40161;-83
2022/01/28 17:23:01;;;;;;;3.57;1.80;;;;;;;6.02;60.00;100593.53;5079562;28;40488;-85
2022/01/28 17:25:29;;;;;;;2.13;1.13;;;;;;;5.95;59.84;100596.25;5075054;28;42010;-83
2022/01/28 17:27:56;;;;;;;2.73;1.47;;;;;;;5.92;59.89;100576.16;5069906;28;42218;-86
2022/01/28 17:30:26;;;;;;;3.97;1.50;;;;;;;5.93;59.75;100583.16;5072736;28;40803;-86
2022/01/28 17:32:56;;;;;;;2.00;1.30;;;;;;;5.99;59.81;100598.81;5056498;28;40815;-90
2022/01/28 17:35:25;;;;;;;3.40;1.43;;;;;;;5.81;59.76;100567.50;5069226;28;43333;-83
2022/01/28 17:37:54;;;;;;;4.40;1.50;;;;;;;5.78;59.95;100576.34;5070324;28;42291;-84
2022/01/28 17:40:22;;;;;;;11.67;3.17;;;;;;;5.66;60.30;100552.88;5056377;28;39206;-86
2022/01/28 17:42:50;;;;;;;5.17;2.40;;;;;;;6.10;60.07;100614.44;5059520;28;40997;-84
2022/01/28 17:45:18;;;;;;;4.67;1.60;;;;;;;6.11;60.07;100606.50;5055535;28;43279;-85
2022/01/28 17:47:45;;;;;;;3.53;1.80;;;;;;;6.13;60.03;100617.88;5051584;28;42354;-87
2022/01/28 17:50:13;;;;;;;1.77;1.43;;;;;;;6.06;60.12;100608.34;5052008;28;39636;-85
2022/01/28 17:52:40;;;;;;;2.90;1.40;;;;;;;6.04;60.13;100602.25;5050023;28;40770;-87
2022/01/28 17:55:10;;;;;;;4.47;1.40;;;;;;;6.01;60.12;100602.31;5050226;28;41906;-85
2022/01/28 17:57:38;;;;;;;4.20;1.33;;;;;;;6.11;60.15;100624.94;5070317;28;41745;-87
2022/01/28 18:00:08;;;;;;;3.23;1.50;;;;;;;5.97;60.09;100608.50;5072121;28;39188;-92
2022/01/28 18:02:35;;;;;;;4.20;1.80;;;;;;;5.63;60.23;100558.16;5056996;28;41323;-87
2022/01/28 18:05:04;;;;;;;3.23;1.17;;;;;;;5.94;60.10;100610.28;5060030;28;42722;-86
2022/01/28 18:07:32;;;;;;;8.43;2.80;;;;;;;6.01;60.06;100633.00;5062601;28;41950;-86
2022/01/28 18:10:00;;;;;;;3.10;2.10;;;;;;;5.89;60.39;100607.75;5072973;28;40780;-88
2022/01/28 18:12:28;;;;;;;3.33;2.03;;;;;;;5.91;60.86;100623.50;5057000;28;41882;-88
2022/01/28 18:14:56;;;;;;;6.23;2.13;;;;;;;5.85;61.16;100613.91;5054302;28;41647;-85
2022/01/28 18:17:24;;;;;;;3.87;2.00;;;;;;;5.94;61.03;100626.06;5057245;28;40851;-83
2022/01/28 18:19:52;;;;;;;2.30;1.60;;;;;;;5.89;61.37;100618.28;5075137;28;40263;-84
2022/01/28 18:22:19;;;;;;;7.43;1.87;;;;;;;5.91;61.11;100621.75;5058521;28;40937;-82
2022/01/28 18:24:47;;;;;;;3.80;1.53;;;;;;;5.89;61.33;100615.66;5057807;28;42100;-82
2022/01/28 18:27:17;;;;;;;8.17;1.50;;;;;;;5.89;61.11;100623.53;5072286;28;43154;-84
2022/01/28 18:29:46;;;;;;;3.63;2.63;;;;;;;5.88;61.65;100620.88;5074608;28;38950;-85
2022/01/28 18:32:13;;;;;;;6.47;2.47;;;;;;;5.72;61.42;100596.56;5075032;28;40982;-84
2022/01/28 18:34:41;;;;;;;4.53;2.10;;;;;;;5.82;61.79;100620.97;5074801;28;41984;-84
2022/01/28 18:37:09;;;;;;;4.77;1.80;;;;;;;5.65;61.71;100593.19;5075304;28;42781;-82
2022/01/28 18:39:36;;;;;;;3.60;2.23;;;;;;;5.78;61.56;100620.16;5074180;28;40447;-83
2022/01/28 18:42:08;;;;;;;3.60;1.80;;;;;;;5.66;62.06;100607.19;5056488;28;41636;-84
2022/01/28 18:44:41;;;;;;;2.33;1.67;;;;;;;5.75;62.12;100635.97;5054627;28;42999;-84
2022/01/28 18:47:13;;;;;;;1.20;1.10;;;;;;;5.74;62.13;100628.97;5058757;28;41255;-85
2022/01/28 18:49:41;;;;;;;2.87;1.20;;;;;;;5.64;61.90;100622.13;5051512;28;40166;-82
2022/01/28 18:52:11;;;;;;;3.10;1.50;;;;;;;5.71;62.01;100634.28;5056614;28;41032;-84
2022/01/28 18:54:39;;;;;;;5.80;2.20;;;;;;;5.60;62.00;100618.66;5072968;28;42697;-82
2022/01/28 18:57:07;;;;;;;2.13;1.73;;;;;;;5.60;62.00;100620.41;5058734;28;41467;-82
2022/01/28 18:59:34;;;;;;;5.13;1.53;;;;;;;5.57;62.03;100609.94;5055997;28;39975;-82
2022/01/28 19:02:02;;;;;;;2.63;1.60;;;;;;;5.72;62.24;100636.00;5093982;28;42347;-83
2022/01/28 19:04:31;;;;;;;1.67;1.23;;;;;;;5.67;61.69;100627.34;5074658;28;43520;-81
2022/01/28 19:06:59;;;;;;;2.80;1.20;;;;;;;5.75;61.75;100641.22;5071799;28;42091;-85
2022/01/28 19:09:26;;;;;;;4.23;2.17;;;;;;;5.66;61.87;100630.84;5057383;28;39094;-81
2022/01/28 19:11:57;;;;;;;4.50;1.37;;;;;;;5.77;61.86;100649.97;5074679;28;40711;-84
2022/01/28 19:14:24;;;;;;;5.60;1.60;;;;;;;5.73;61.72;100637.75;5073615;28;41932;-84
2022/01/28 19:16:51;;;;;;;4.40;1.47;;;;;;;5.60;61.82;100620.41;5057625;28;40662;-82
2022/01/28 19:19:20;;;;;;;2.47;1.60;;;;;;;5.65;61.95;100623.84;5072219;28;38974;-82
2022/01/28 19:21:50;;;;;;;5.23;1.93;;;;;;;5.75;62.20;100649.13;5055934;28;40906;-84
2022/01/28 19:24:17;;;;;;;4.27;1.83;;;;;;;5.72;62.18;100646.53;5069510;28;41821;-82
2022/01/28 19:26:46;;;;;;;2.20;1.80;;;;;;;5.63;62.45;100644.03;5077973;28;41401;-82
2022/01/28 19:29:13;;;;;;;2.70;1.53;;;;;;;5.37;62.40;100604.97;5062676;28;38681;-82
2022/01/28 19:31:41;;;;;;;2.27;1.80;;;;;;;5.55;62.64;100638.03;5068256;28;40745;-84
2022/01/28 19:34:08;;;;;;;2.93;1.53;;;;;;;5.32;62.33;100607.66;5078280;28;42850;-82
2022/01/28 19:36:36;;;;;;;1.73;1.63;;;;;;;5.43;62.39;100632.94;5089310;28;40985;-83
2022/01/28 19:39:05;;;;;;;1.67;1.27;;;;;;;5.39;62.60;100627.72;5058636;28;39001;-83
2022/01/28 19:41:33;;;;;;;3.43;1.60;;;;;;;5.49;62.59;100643.34;5057014;28;40769;-85
2022/01/28 19:44:01;;;;;;;2.57;1.23;;;;;;;5.45;62.57;100637.25;5056671;28;42716;-83
2022/01/28 19:46:32;;;;;;;4.67;1.73;;;;;;;5.31;62.81;100620.84;5057564;28;41532;-84
2022/01/28 19:49:07;;;;;;;3.33;2.40;;;;;;;5.26;63.00;100620.00;5057910;28;38684;-84
2022/01/28 19:51:35;;;;;;;3.63;2.17;;;;;;;5.32;63.09;100631.28;5057677;28;41093;-84
2022/01/28 19:54:06;;;;;;;3.77;2.53;;;;;;;5.29;63.48;100626.09;5057576;28;41590;-85
2022/01/28 19:56:35;;;;;;;4.70;2.10;;;;;;;5.35;63.22;100630.38;5074584;28;41077;-84
2022/01/28 19:59:05;;;;;;;4.50;2.37;;;;;;;5.37;63.33;100631.25;5056405;28;40064;-85
2022/01/28 20:01:33;;;;;;;4.70;1.90;;;;;;;5.33;63.71;100626.91;5074155;28;41620;-83
2022/01/28 20:04:00;;;;;;;3.43;2.00;;;;;;;5.35;63.57;100627.75;5057346;28;41765;-83
2022/01/28 20:06:28;;;;;;;5.63;2.00;;;;;;;5.29;63.39;100609.47;5053987;28;41997;-84
2022/01/28 20:08:56;;;;;;;4.67;1.97;;;;;;;5.12;63.95;100583.41;5046888;28;39206;-84
2022/01/28 20:11:25;;;;;;;3.23;1.93;;;;;;;5.39;63.87;100627.72;5053901;28;42210;-83
2022/01/28 20:13:53;;;;;;;2.57;1.80;;;;;;;5.39;63.67;100627.72;5053979;28;41540;-82
2022/01/28 20:16:21;;;;;;;5.53;1.73;;;;;;;5.34;63.81;100619.00;5049090;28;41261;-82
2022/01/28 20:18:51;;;;;;;3.10;1.67;;;;;;;5.37;63.75;100624.22;5046099;28;39769;-81
2022/01/28 20:21:18;;;;;;;4.20;2.83;;;;;;;5.36;63.88;100617.22;5056918;28;40742;-84
2022/01/28 20:23:46;;;;;;;3.90;2.10;;;;;;;5.25;63.70;100603.38;5075813;28;41764;-83
2022/01/28 20:26:14;;;;;;;2.27;2.10;;;;;;;5.31;63.73;100619.06;5076059;28;41300;-82
2022/01/28 20:28:43;;;;;;;9.50;3.07;;;;;;;4.93;63.86;100550.41;5067200;28;38578;-84
2022/01/28 20:31:11;;;;;;;8.13;1.83;;;;;;;5.27;63.85;100612.13;5054056;28;41745;-84
2022/01/28 20:33:39;;;;;;;3.70;1.80;;;;;;;5.18;63.97;100590.34;5068661;28;42688;-83
2022/01/28 20:36:07;;;;;;;2.40;1.63;;;;;;;5.23;64.02;100591.16;5056537;28;41124;-85
2022/01/28 20:38:35;;;;;;;2.90;1.83;;;;;;;5.23;64.29;100594.63;5057158;28;38567;-83
2022/01/28 20:41:04;;;;;;;3.87;2.00;;;;;;;5.13;64.18;100576.41;5079162;28;42629;-84
2022/01/28 20:43:33;;;;;;;3.90;2.03;;;;;;;5.29;64.28;100594.56;5078936;28;42204;-83
2022/01/28 20:46:02;;;;;;;2.77;2.03;;;;;;;5.11;64.43;100568.53;5075683;28;41235;-82
2022/01/28 20:48:31;;;;;;;2.47;1.67;;;;;;;5.12;64.53;100575.53;5074256;28;40937;-82
2022/01/28 20:51:01;;;;;;;4.50;2.43;;;;;;;5.14;64.52;100579.00;5056079;28;40949;-83
2022/01/28 20:53:29;;;;;;;3.60;1.70;;;;;;;5.17;65.00;100581.59;5056432;28;42333;-83
2022/01/28 20:55:57;;;;;;;3.93;1.47;;;;;;;5.23;64.84;100594.63;5091305;28;42309;-83
2022/01/28 20:58:25;;;;;;;5.63;1.97;;;;;;;5.25;64.91;100592.88;5057098;28;39130;-84
2022/01/28 21:00:52;;;;;;;2.93;1.63;;;;;;;5.15;65.18;100574.63;5056268;28;40710;-84
2022/01/28 21:03:22;;;;;;;2.07;1.77;;;;;;;5.14;65.41;100572.88;5070258;28;41805;-81
2022/01/28 21:05:50;;;;;;;8.93;2.17;;;;;;;5.20;65.53;100578.91;5072622;28;42284;-82
2022/01/28 21:08:17;;;;;;;4.00;1.77;;;;;;;5.16;65.69;100566.72;5056751;28;40425;-82
2022/01/28 21:10:47;;;;;;;1.70;1.37;;;;;;;5.23;65.80;100578.88;5058083;28;42131;-85
2022/01/28 21:13:15;;;;;;;5.47;2.00;;;;;;;5.25;65.82;100581.50;5056580;28;43973;-84
2022/01/28 21:15:44;;;;;;;4.47;1.60;;;;;;;5.14;65.90;100565.88;5056003;28;42065;-84
2022/01/28 21:18:11;;;;;;;3.60;1.90;;;;;;;5.26;66.57;100584.09;5062189;28;39095;-83
2022/01/28 21:20:41;;;;;;;2.70;2.00;;;;;;;5.25;66.94;100577.09;5045658;28;41738;-84
2022/01/28 21:23:08;;;;;;;7.43;2.10;;;;;;;5.26;67.21;100577.97;5055197;28;42224;-84
2022/01/28 21:25:36;;;;;;;3.60;1.93;;;;;;;5.07;67.46;100540.56;5054163;28;42290;-84
2022/01/28 21:28:05;;;;;;;3.00;1.87;;;;;;;5.10;68.11;100534.41;5052674;28;38624;-83
2022/01/28 21:30:33;;;;;;;6.17;2.70;;;;;;;5.19;68.57;100548.31;5061128;28;40525;-85
2022/01/28 21:33:01;;;;;;;4.27;2.73;;;;;;;5.10;68.90;100539.66;5072360;28;41902;-85
2022/01/28 21:35:29;;;;;;;5.03;2.23;;;;;;;5.17;69.14;100564.97;5053330;28;40643;-83
2022/01/28 21:37:58;;;;;;;5.93;2.67;;;;;;;5.05;69.61;100542.38;5055832;28;39977;-84
2022/01/28 21:40:25;;;;;;;6.13;4.10;;;;;;;5.03;70.60;100550.28;5059785;28;40683;-85
